Main page
Satellite images Climate Cyclones Lightning AirportsFAQ Languages Contact Newsletter About
Weather : Europe Africa North America South America Asia Australia-Oceania Others

4201, Vientiane, Wattay International Airport

48940

latitude: , longitude: Laos, elevation: 17-57N m


METAR: VLVT 160900Z 27002KT 8000 FEW020 FEW200 29/15 Q1009 NOSIG